createdAt,value
2022-09-15T00:03:15.856Z,0
2022-09-15T00:07:58.063Z,0
2022-09-15T00:12:39.409Z,0
2022-09-15T00:17:21.693Z,0
2022-09-15T00:22:03.997Z,0
2022-09-15T00:26:46.310Z,0
2022-09-15T00:31:28.534Z,0
2022-09-15T00:36:10.836Z,0
2022-09-15T00:40:53.142Z,0
2022-09-15T00:45:35.353Z,0
2022-09-15T00:50:17.668Z,0
2022-09-15T00:54:59.976Z,0
2022-09-15T00:59:42.190Z,0
2022-09-15T01:04:24.505Z,0
2022-09-15T01:09:06.821Z,0
2022-09-15T01:13:48.120Z,0
2022-09-15T01:18:30.373Z,0
2022-09-15T01:23:12.646Z,0
2022-09-15T01:27:54.959Z,0
2022-09-15T01:32:37.181Z,0
2022-09-15T01:37:19.482Z,0
2022-09-15T01:42:01.793Z,0
2022-09-15T01:46:44.003Z,0
2022-09-15T01:51:26.310Z,0
2022-09-15T01:56:08.625Z,0
2022-09-15T02:00:50.867Z,0
2022-09-15T02:05:33.150Z,0
2022-09-15T02:10:15.489Z,0
2022-09-15T02:14:56.769Z,0
2022-09-15T02:19:38.983Z,0
2022-09-15T02:24:21.290Z,0
2022-09-15T02:29:03.605Z,0
2022-09-15T02:33:45.816Z,0
2022-09-15T02:38:28.127Z,0
2022-09-15T02:43:10.436Z,0
2022-09-15T02:52:34.943Z,0
2022-09-15T02:57:17.250Z,0
2022-09-15T03:01:59.561Z,0
2022-09-15T03:06:41.811Z,0
2022-09-15T03:11:24.092Z,0
2022-09-15T03:16:05.392Z,0
2022-09-15T03:20:47.606Z,0
2022-09-15T03:25:29.925Z,0
2022-09-15T03:30:12.233Z,0
2022-09-15T03:34:54.440Z,0
2022-09-15T03:39:36.750Z,0
2022-09-15T03:44:19.068Z,0
2022-09-15T03:49:01.289Z,0
2022-09-15T03:53:43.611Z,0
2022-09-15T03:58:25.902Z,0
2022-09-15T04:03:08.113Z,0
2022-09-15T04:07:50.424Z,0
2022-09-15T04:12:32.744Z,0
2022-09-15T04:17:14.048Z,0
2022-09-15T04:21:56.266Z,0
2022-09-15T04:26:38.579Z,0
2022-09-15T04:31:20.889Z,0
2022-09-15T04:36:03.093Z,0
2022-09-15T04:40:45.407Z,0
2022-09-15T04:45:27.622Z,0
2022-09-15T04:50:09.950Z,0
2022-09-15T04:54:52.243Z,5
2022-09-15T04:59:34.457Z,5
2022-09-15T05:04:16.773Z,0
2022-09-15T05:08:59.078Z,16
2022-09-15T05:13:41.290Z,11
2022-09-15T05:18:22.600Z,16
2022-09-15T05:23:04.912Z,16
2022-09-15T05:27:47.239Z,16
2022-09-15T05:32:29.465Z,22
2022-09-15T05:37:11.884Z,33
2022-09-15T05:41:54.099Z,45
2022-09-15T05:46:36.280Z,28
2022-09-15T05:51:18.585Z,33
2022-09-15T06:00:43.122Z,22
2022-09-15T06:05:25.429Z,16
2022-09-15T06:10:07.734Z,45
2022-09-15T06:14:49.949Z,95
2022-09-15T06:19:31.256Z,157
2022-09-15T06:24:13.566Z,112
2022-09-15T06:28:55.787Z,202
2022-09-15T06:33:38.132Z,180
2022-09-15T06:38:20.402Z,151
2022-09-15T06:43:02.613Z,129
2022-09-15T06:47:44.925Z,146
2022-09-15T06:52:27.253Z,95
2022-09-15T06:57:09.506Z,168
2022-09-15T07:01:51.754Z,106
2022-09-15T07:06:34.112Z,140
2022-09-15T07:11:16.331Z,180
2022-09-15T07:15:58.594Z,163
2022-09-15T07:20:39.917Z,140
2022-09-15T07:25:22.226Z,343
2022-09-15T07:30:04.423Z,129
2022-09-15T07:34:46.740Z,151
2022-09-15T07:39:29.070Z,241
2022-09-15T07:44:11.269Z,106
2022-09-15T07:48:53.575Z,163
2022-09-15T07:53:35.888Z,202
2022-09-15T07:58:18.101Z,78
2022-09-15T08:03:00.462Z,67
2022-09-15T08:07:42.727Z,185
2022-09-15T08:12:24.948Z,225
2022-09-15T08:17:07.251Z,275
2022-09-15T08:21:48.612Z,185
2022-09-15T08:26:30.772Z,219
2022-09-15T08:31:13.150Z,168
2022-09-15T08:35:55.398Z,146
2022-09-15T08:40:37.616Z,264
2022-09-15T08:45:19.926Z,241
2022-09-15T08:50:02.230Z,112
2022-09-15T08:54:44.490Z,101
2022-09-15T08:59:26.779Z,112
2022-09-15T09:04:09.100Z,185
2022-09-15T09:08:51.277Z,163
2022-09-15T09:13:33.655Z,163
2022-09-15T09:18:15.900Z,157
2022-09-15T09:22:57.212Z,275
2022-09-15T09:27:39.508Z,478
2022-09-15T09:32:21.740Z,478
2022-09-15T09:37:04.045Z,421
2022-09-15T09:41:46.262Z,348
2022-09-15T09:46:28.570Z,157
2022-09-15T09:51:11.003Z,264
2022-09-15T09:55:53.143Z,230
2022-09-15T10:00:35.517Z,151
2022-09-15T10:05:17.744Z,146
2022-09-15T10:09:59.985Z,123
2022-09-15T10:14:42.272Z,123
2022-09-15T10:19:24.557Z,196
2022-09-15T10:24:05.770Z,247
2022-09-15T10:28:48.136Z,270
2022-09-15T10:33:30.450Z,303
2022-09-15T10:38:12.602Z,230
2022-09-15T10:42:54.946Z,343
2022-09-15T10:47:37.239Z,421
2022-09-15T10:52:19.493Z,478
2022-09-15T10:57:01.823Z,573
2022-09-15T11:01:44.078Z,753
2022-09-15T11:06:26.277Z,444
2022-09-15T11:11:08.609Z,798
2022-09-15T11:15:50.989Z,759
2022-09-15T11:20:33.106Z,1485
2022-09-15T11:25:14.478Z,669
2022-09-15T11:29:56.821Z,450
2022-09-15T11:34:39.048Z,399
2022-09-15T11:39:21.288Z,466
2022-09-15T11:44:03.625Z,247
2022-09-15T11:48:45.880Z,202
2022-09-15T11:53:28.088Z,180
2022-09-15T11:58:10.398Z,236
2022-09-15T12:02:52.733Z,371
2022-09-15T12:07:35.023Z,326
2022-09-15T12:12:17.395Z,343
2022-09-15T12:16:59.632Z,247
2022-09-15T12:21:41.781Z,264
2022-09-15T12:26:23.096Z,253
2022-09-15T12:31:05.427Z,202
2022-09-15T12:35:47.597Z,298
2022-09-15T12:40:30.003Z,438
2022-09-15T12:45:12.221Z,253
2022-09-15T12:49:54.443Z,140
2022-09-15T12:54:36.768Z,129
2022-09-15T12:59:19.154Z,185
2022-09-15T13:04:01.270Z,163
2022-09-15T13:08:43.592Z,275
2022-09-15T13:13:25.982Z,219
2022-09-15T13:18:08.167Z,140
2022-09-15T13:22:50.543Z,135
2022-09-15T13:27:31.726Z,168
2022-09-15T13:32:14.081Z,95
2022-09-15T13:36:56.249Z,230
2022-09-15T13:41:38.637Z,241
2022-09-15T13:46:20.877Z,286
2022-09-15T13:51:03.141Z,225
2022-09-15T13:55:45.451Z,270
2022-09-15T14:00:27.754Z,320
2022-09-15T14:05:09.997Z,247
2022-09-15T14:09:52.248Z,118
2022-09-15T14:14:34.622Z,275
2022-09-15T14:19:16.761Z,140
2022-09-15T14:23:59.095Z,270
2022-09-15T14:28:40.494Z,427
2022-09-15T14:33:22.690Z,354
2022-09-15T14:38:04.904Z,388
2022-09-15T14:42:47.336Z,630
2022-09-15T14:47:29.628Z,1321
2022-09-15T14:52:11.865Z,579
2022-09-15T14:56:54.077Z,466
2022-09-15T15:01:36.516Z,320
2022-09-15T15:06:18.628Z,421
2022-09-15T15:11:01.004Z,416
2022-09-15T15:15:43.308Z,438
2022-09-15T15:20:25.577Z,388
2022-09-15T15:25:07.829Z,270
2022-09-15T15:29:49.116Z,225
2022-09-15T15:34:31.245Z,247
2022-09-15T15:39:13.566Z,360
2022-09-15T15:43:56.018Z,433
2022-09-15T15:48:38.196Z,331
2022-09-15T15:53:20.526Z,326
2022-09-15T15:58:01.714Z,292
2022-09-15T16:02:44.038Z,286
2022-09-15T16:07:26.237Z,275
2022-09-15T16:12:08.534Z,247
2022-09-15T16:16:50.881Z,208
2022-09-15T16:21:33.063Z,253
2022-09-15T16:26:15.382Z,236
2022-09-15T16:30:57.685Z,196
2022-09-15T16:35:39.901Z,146
2022-09-15T16:40:22.206Z,61
2022-09-15T16:45:04.524Z,33
2022-09-15T16:49:46.730Z,11
2022-09-15T16:54:29.046Z,5
2022-09-15T16:59:10.351Z,5
2022-09-15T17:03:52.686Z,0
2022-09-15T17:08:34.879Z,5
2022-09-15T17:13:17.197Z,16
2022-09-15T17:17:59.499Z,11
2022-09-15T17:22:41.729Z,5
2022-09-15T17:27:24.022Z,5
2022-09-15T17:32:06.423Z,0
2022-09-15T17:36:48.549Z,0
2022-09-15T17:41:30.872Z,0
2022-09-15T17:46:13.171Z,0
2022-09-15T17:50:55.389Z,0
2022-09-15T17:55:37.696Z,0
2022-09-15T18:00:19.010Z,0
2022-09-15T18:05:01.214Z,0
2022-09-15T18:09:43.531Z,0
2022-09-15T18:14:25.840Z,0
2022-09-15T18:19:08.052Z,0
2022-09-15T18:23:50.364Z,0
2022-09-15T18:33:14.886Z,0
2022-09-15T18:37:57.200Z,0
2022-09-15T18:42:39.510Z,0
2022-09-15T18:47:21.819Z,0
2022-09-15T18:52:04.037Z,0
2022-09-15T18:56:46.354Z,0
2022-09-15T19:01:27.667Z,0
2022-09-15T19:06:09.867Z,0
2022-09-15T19:10:52.181Z,0
2022-09-15T19:15:34.493Z,0
2022-09-15T19:20:16.748Z,0
2022-09-15T19:24:59.036Z,0
2022-09-15T19:29:41.323Z,0
2022-09-15T19:34:23.537Z,0
2022-09-15T19:39:05.848Z,0
2022-09-15T19:43:48.266Z,0
2022-09-15T19:48:30.491Z,0
2022-09-15T19:53:12.809Z,0
2022-09-15T19:57:55.131Z,0
2022-09-15T20:02:36.348Z,0
2022-09-15T20:07:18.640Z,0
2022-09-15T20:12:00.829Z,0
2022-09-15T20:16:43.142Z,0
2022-09-15T20:21:25.352Z,0
2022-09-15T20:26:07.664Z,0
2022-09-15T20:30:50.012Z,0
2022-09-15T20:35:32.186Z,0
2022-09-15T20:40:14.498Z,0
2022-09-15T20:44:55.808Z,0
2022-09-15T20:49:37.138Z,0
2022-09-15T20:54:19.429Z,0
2022-09-15T20:59:01.643Z,0
2022-09-15T21:03:43.951Z,0
2022-09-15T21:08:26.263Z,0
2022-09-15T21:13:08.482Z,0
2022-09-15T21:17:50.813Z,0
2022-09-15T21:22:33.100Z,0
2022-09-15T21:27:15.312Z,0
2022-09-15T21:31:57.627Z,0
2022-09-15T21:36:39.941Z,0
2022-09-15T21:41:22.144Z,0
2022-09-15T21:46:04.473Z,0
2022-09-15T21:50:45.769Z,0
2022-09-15T21:55:28.083Z,0
2022-09-15T22:00:10.299Z,0
2022-09-15T22:04:52.606Z,0
2022-09-15T22:09:34.914Z,0
2022-09-15T22:14:17.134Z,0
2022-09-15T22:18:59.457Z,0
2022-09-15T22:23:40.747Z,0
2022-09-15T22:28:22.056Z,0
2022-09-15T22:33:04.378Z,0
2022-09-15T22:37:46.581Z,0
2022-09-15T22:42:28.894Z,0
2022-09-15T22:47:11.209Z,0
2022-09-15T22:51:53.415Z,0
2022-09-15T22:56:35.727Z,0
2022-09-15T23:01:18.066Z,0
2022-09-15T23:06:00.256Z,0
2022-09-15T23:10:42.568Z,0
2022-09-15T23:15:24.874Z,0
2022-09-15T23:20:07.087Z,0
2022-09-15T23:24:49.399Z,0
2022-09-15T23:29:30.706Z,0
2022-09-15T23:34:13.032Z,0
2022-09-15T23:38:55.237Z,0
2022-09-15T23:43:37.541Z,0
2022-09-15T23:48:19.854Z,0
2022-09-15T23:53:02.068Z,0
2022-09-15T23:57:44.379Z,0
